Time;durP1;ratioP1;P1;durP2;ratioP2;P2;SDS_P1;SDS_P2;PMS_P1;PMS_P2;Temp;Humidity;BMP_temperature;BMP_pressure;BME280_temperature;BME280_humidity;BME280_pressure;Samples;Min_cycle;Max_cycle;Signal;HPM_P1;HPM_P2
2022/10/11 00:01:24;;;;;;;7.03;1.95;;;;;;;11.86;85.92;101241.69;5000637;28;20454;-82
2022/10/11 00:03:53;;;;;;;7.07;1.67;;;;;;;11.87;85.54;101253.97;4992718;28;20050;-84
2022/10/11 00:06:25;;;;;;;7.68;2.03;;;;;;;11.89;84.91;101246.81;4988501;28;20046;-83
2022/10/11 00:08:54;;;;;;;9.25;2.03;;;;;;;11.84;85.10;101256.75;4991465;28;20037;-82
2022/10/11 00:11:21;;;;;;;7.90;1.75;;;;;;;11.68;85.69;101261.97;4960716;28;20120;-82
2022/10/11 00:13:56;;;;;;;7.72;2.08;;;;;;;11.70;85.22;101261.88;4990220;28;20045;-83
2022/10/11 00:16:24;;;;;;;8.07;2.03;;;;;;;11.66;85.48;101272.63;4985030;28;20065;-83
2022/10/11 00:18:53;;;;;;;7.65;1.90;;;;;;;11.61;85.67;101271.13;4975056;28;20066;-82
2022/10/11 00:21:21;;;;;;;9.07;2.10;;;;;;;11.56;85.83;101279.28;4997201;28;20643;-82
2022/10/11 00:23:52;;;;;;;9.95;2.00;;;;;;;11.57;85.57;101285.41;5004918;28;20056;-82
2022/10/11 00:26:20;;;;;;;7.20;1.95;;;;;;;11.48;86.35;101297.28;4959489;28;20046;-82
2022/10/11 00:28:53;;;;;;;7.68;2.22;;;;;;;11.29;86.96;101293.91;4968728;28;20558;-83
2022/10/11 00:31:21;;;;;;;5.40;1.67;;;;;;;11.27;86.99;101299.28;4993572;28;20046;-81
2022/10/11 00:33:50;;;;;;;6.90;1.77;;;;;;;11.28;86.85;101298.34;4994660;28;20077;-81
2022/10/11 00:36:18;;;;;;;11.90;2.17;;;;;;;11.19;87.56;101295.31;4986196;28;20055;-81
2022/10/11 00:38:47;;;;;;;5.25;1.67;;;;;;;11.16;87.29;101307.69;4995122;28;20045;-82
2022/10/11 00:41:15;;;;;;;10.57;2.15;;;;;;;11.03;88.27;101301.38;5007180;28;20042;-82
2022/10/11 00:43:46;;;;;;;7.95;2.63;;;;;;;10.95;88.53;101310.59;4991488;28;20078;-82
2022/10/11 00:46:20;;;;;;;12.88;2.10;;;;;;;10.90;88.58;101314.28;4986697;28;20033;-83
2022/10/11 00:49:03;;;;;;;7.95;1.92;;;;;;;10.94;87.93;101320.25;5002752;28;20046;-82
2022/10/11 00:51:47;;;;;;;8.43;1.83;;;;;;;10.92;87.91;101324.75;4991516;28;20129;-83
2022/10/11 00:54:24;;;;;;;7.78;1.67;;;;;;;10.85;88.04;101328.59;4991951;28;20050;-82
2022/10/11 00:57:05;;;;;;;16.95;2.75;;;;;;;10.77;89.05;101325.50;4993332;28;20463;-81
2022/10/11 00:59:36;;;;;;;5.90;1.63;;;;;;;10.77;88.28;101328.13;4993099;28;20579;-84
2022/10/11 01:02:10;;;;;;;13.23;2.83;;;;;;;10.71;88.97;101334.53;4974545;28;20046;-81
2022/10/11 01:04:39;;;;;;;10.60;1.75;;;;;;;10.56;89.54;101341.38;4961554;28;20509;-81
2022/10/11 01:07:10;;;;;;;9.75;1.90;;;;;;;10.48;90.24;101340.91;4980182;28;20056;-83
2022/10/11 01:09:44;;;;;;;5.53;1.77;;;;;;;10.47;90.42;101339.19;4989589;28;20492;-81
2022/10/11 01:12:20;;;;;;;11.75;2.30;;;;;;;10.49;89.82;101355.78;4988976;28;20064;-84
2022/10/11 01:15:16;;;;;;;17.02;2.15;;;;;;;10.46;90.63;101355.06;4974046;28;20060;-82
2022/10/11 01:18:16;;;;;;;7.57;1.88;;;;;;;10.40;90.67;101348.28;4972277;28;20141;-80
2022/10/11 01:21:24;;;;;;;12.52;1.90;;;;;;;10.44;90.29;101357.75;4976913;28;20061;-79
2022/10/11 01:24:30;;;;;;;8.57;2.15;;;;;;;10.38;91.11;101363.31;4960452;28;20046;-82
2022/10/11 01:27:24;;;;;;;10.63;1.88;;;;;;;10.23;92.43;101358.75;4982178;28;20049;-81
2022/10/11 01:30:17;;;;;;;12.43;2.35;;;;;;;10.26;92.24;101371.75;5011835;28;20409;-82
2022/10/11 01:32:58;;;;;;;11.57;2.35;;;;;;;10.20;92.25;101374.66;4989754;28;20050;-82
2022/10/11 01:35:37;;;;;;;16.52;4.07;;;;;;;10.12;93.71;101372.34;4980669;28;20046;-81
2022/10/11 01:38:28;;;;;;;11.25;2.05;;;;;;;10.01;94.94;101375.47;4970026;28;20048;-81
2022/10/11 01:41:04;;;;;;;16.42;2.35;;;;;;;9.99;94.96;101377.31;4980836;28;20096;-81
2022/10/11 01:43:36;;;;;;;11.23;3.20;;;;;;;9.98;94.75;101380.03;4978481;28;20041;-83
2022/10/11 01:46:06;;;;;;;13.35;2.58;;;;;;;9.94;95.33;101384.56;4978371;28;20050;-81
2022/10/11 01:48:54;;;;;;;17.38;2.35;;;;;;;9.87;96.38;101381.34;4995965;28;20072;-82
2022/10/11 01:51:41;;;;;;;13.18;2.35;;;;;;;9.83;97.25;101385.03;5003670;28;20062;-81
2022/10/11 01:54:40;;;;;;;15.57;2.88;;;;;;;9.86;96.97;101386.66;4992748;28;20046;-82
2022/10/11 01:57:34;;;;;;;11.95;3.00;;;;;;;9.81;97.64;101388.63;5001179;28;20400;-81
2022/10/11 02:00:15;;;;;;;10.10;2.00;;;;;;;9.84;96.85;101386.75;4981482;28;20093;-84
2022/10/11 02:03:14;;;;;;;10.90;2.60;;;;;;;9.79;97.86;101387.88;4996054;28;20081;-82
2022/10/11 02:05:47;;;;;;;14.88;2.78;;;;;;;9.74;97.77;101392.47;5013744;28;20083;-82
2022/10/11 02:08:47;;;;;;;11.35;2.40;;;;;;;9.74;98.17;101395.97;5006378;28;20069;-84
2022/10/11 02:11:25;;;;;;;16.65;2.95;;;;;;;9.72;98.01;101394.31;4967152;28;20140;-82
2022/10/11 02:14:22;;;;;;;15.18;2.60;;;;;;;9.63;99.25;101399.03;5005601;28;20038;-82
2022/10/11 02:16:54;;;;;;;9.57;2.72;;;;;;;9.68;98.72;101401.50;4994589;28;20046;-81
2022/10/11 02:19:28;;;;;;;15.45;2.25;;;;;;;9.69;98.38;101402.34;4990176;28;20058;-83
2022/10/11 02:22:00;;;;;;;14.65;2.55;;;;;;;9.60;99.44;101406.22;5004122;28;20073;-80
2022/10/11 02:24:31;;;;;;;16.20;3.05;;;;;;;9.60;98.99;101411.47;4969452;28;20122;-81
2022/10/11 02:27:02;;;;;;;9.48;2.50;;;;;;;9.57;99.78;101412.44;4965761;28;20045;-82
2022/10/11 02:29:33;;;;;;;21.02;3.05;;;;;;;9.56;100.00;101404.63;4989935;28;20487;-80
2022/10/11 02:32:02;;;;;;;12.70;2.42;;;;;;;9.54;100.00;101412.56;4995242;28;20128;-83
2022/10/11 02:34:38;;;;;;;20.45;2.92;;;;;;;9.56;100.00;101415.16;5019199;28;20105;-82
2022/10/11 02:37:09;;;;;;;15.23;2.33;;;;;;;9.66;99.00;101413.81;4977173;28;20126;-82
2022/10/11 02:39:47;;;;;;;13.02;2.92;;;;;;;9.61;98.63;101414.03;5015871;28;20050;-82
2022/10/11 02:42:19;;;;;;;19.85;3.15;;;;;;;9.66;98.28;101423.50;5008854;28;20330;-79
2022/10/11 02:44:59;;;;;;;12.98;2.60;;;;;;;9.69;97.61;101413.72;4981598;28;20046;-82
2022/10/11 02:47:30;;;;;;;10.77;2.45;;;;;;;9.66;97.95;101420.88;4994758;28;20145;-83
2022/10/11 02:50:00;;;;;;;16.15;2.28;;;;;;;9.62;98.46;101420.97;4984665;28;20049;-83
2022/10/11 02:52:29;;;;;;;15.23;2.63;;;;;;;9.58;98.71;101427.28;5012322;28;20390;-84
2022/10/11 02:54:57;;;;;;;12.13;2.92;;;;;;;9.54;99.19;101425.69;4985219;28;20051;-81
2022/10/11 02:57:29;;;;;;;15.07;2.08;;;;;;;9.52;98.58;101430.19;4999627;28;20033;-83
2022/10/11 02:59:59;;;;;;;11.20;2.13;;;;;;;9.52;98.82;101435.44;4980010;28;20048;-81
2022/10/11 03:02:31;;;;;;;13.48;3.45;;;;;;;9.51;98.32;101435.50;4935036;28;20103;-81
2022/10/11 03:05:03;;;;;;;9.38;2.30;;;;;;;9.51;98.04;101433.75;4992920;28;20076;-82
2022/10/11 03:07:31;;;;;;;17.83;2.88;;;;;;;9.54;97.44;101440.63;5011869;28;20049;-82
2022/10/11 03:10:03;;;;;;;11.48;2.53;;;;;;;9.46;98.78;101443.59;5007804;28;20103;-82
2022/10/11 03:12:35;;;;;;;14.25;2.75;;;;;;;9.43;98.70;101451.59;4996434;28;20519;-82
2022/10/11 03:15:03;;;;;;;11.52;2.85;;;;;;;9.51;97.86;101460.03;5017876;28;20052;-82
2022/10/11 03:17:31;;;;;;;14.52;2.70;;;;;;;9.52;98.30;101464.34;5001841;28;20045;-83
2022/10/11 03:20:06;;;;;;;13.60;2.58;;;;;;;9.51;98.13;101461.81;5001400;28;20046;-82
2022/10/11 03:22:33;;;;;;;12.98;2.13;;;;;;;9.52;97.88;101458.25;4983465;28;20053;-84
2022/10/11 03:25:05;;;;;;;15.15;2.90;;;;;;;9.49;97.19;101468.88;4993100;28;20056;-79
2022/10/11 03:27:36;;;;;;;17.60;2.67;;;;;;;9.44;97.96;101471.69;4979488;28;20053;-82
2022/10/11 03:30:07;;;;;;;9.65;2.75;;;;;;;9.36;98.80;101485.13;4985797;28;20055;-82
2022/10/11 03:32:45;;;;;;;18.58;2.78;;;;;;;9.35;98.08;101490.47;5007124;28;20049;-82
2022/10/11 03:35:14;;;;;;;11.98;2.13;;;;;;;9.39;99.07;101485.00;5002515;28;20042;-83
2022/10/11 03:37:44;;;;;;;14.27;2.50;;;;;;;9.28;99.56;101486.38;4983946;28;20057;-81
2022/10/11 03:40:14;;;;;;;17.05;2.97;;;;;;;9.24;100.00;101492.66;4997596;28;20129;-82
2022/10/11 03:42:48;;;;;;;17.20;2.55;;;;;;;9.16;100.00;101492.13;4997256;28;20073;-82
2022/10/11 03:45:23;;;;;;;24.65;3.45;;;;;;;9.15;100.00;101490.41;5002689;28;20084;-82
2022/10/11 03:47:53;;;;;;;15.48;3.03;;;;;;;9.11;100.00;101489.66;4989852;28;20049;-81
2022/10/11 03:50:23;;;;;;;15.80;2.47;;;;;;;9.09;100.00;101494.09;4999857;28;20069;-81
2022/10/11 03:52:51;;;;;;;13.73;2.95;;;;;;;9.06;100.00;101502.13;5012840;28;20060;-82
2022/10/11 03:55:22;;;;;;;25.00;4.25;;;;;;;9.06;100.00;101499.50;4992738;28;20056;-83
2022/10/11 03:57:51;;;;;;;17.77;2.70;;;;;;;9.04;100.00;101504.78;5019363;28;20149;-80
2022/10/11 04:00:18;;;;;;;12.77;3.20;;;;;;;9.09;100.00;101500.22;4979778;28;20532;-83
2022/10/11 04:02:46;;;;;;;18.77;2.85;;;;;;;9.06;100.00;101504.75;4967376;28;20050;-83
2022/10/11 04:05:15;;;;;;;15.20;3.03;;;;;;;9.07;100.00;101509.09;4994414;28;20042;-80
2022/10/11 04:07:44;;;;;;;18.52;3.03;;;;;;;9.08;100.00;101510.78;5011188;28;20503;-81
2022/10/11 04:10:14;;;;;;;15.30;2.90;;;;;;;9.19;100.00;101516.50;4986143;28;20065;-83
2022/10/11 04:12:47;;;;;;;14.77;2.95;;;;;;;9.07;100.00;101523.06;4979940;28;20061;-82
2022/10/11 04:15:15;;;;;;;14.70;3.08;;;;;;;8.98;100.00;101525.19;4980033;28;20052;-83
2022/10/11 04:17:46;;;;;;;23.98;3.50;;;;;;;8.96;100.00;101525.25;5010814;28;20103;-81
2022/10/11 04:20:14;;;;;;;16.38;3.05;;;;;;;8.97;100.00;101532.22;4987252;28;20046;-84
2022/10/11 04:22:44;;;;;;;14.40;2.83;;;;;;;8.98;100.00;101531.31;5002326;28;20073;-82
2022/10/11 04:25:12;;;;;;;14.68;2.80;;;;;;;8.94;100.00;101539.34;4983594;28;20061;-82
2022/10/11 04:27:39;;;;;;;21.30;3.40;;;;;;;8.91;100.00;101537.69;5005266;28;20535;-85
2022/10/11 04:30:10;;;;;;;14.98;3.20;;;;;;;8.94;100.00;101534.94;4986878;28;20060;-81
2022/10/11 04:32:38;;;;;;;14.20;3.38;;;;;;;8.97;100.00;101536.63;4989892;28;20042;-84
2022/10/11 04:35:08;;;;;;;11.73;3.25;;;;;;;8.88;100.00;101540.44;4974853;28;20141;-79
2022/10/11 04:37:38;;;;;;;15.68;3.28;;;;;;;8.88;100.00;101545.69;4995074;28;20045;-81
2022/10/11 04:40:07;;;;;;;20.98;3.80;;;;;;;8.90;100.00;101535.97;4970251;28;20052;-81
2022/10/11 04:42:36;;;;;;;19.85;3.28;;;;;;;8.98;100.00;101544.44;4980010;28;20056;-82
2022/10/11 04:45:11;;;;;;;14.48;3.20;;;;;;;8.90;100.00;101553.50;5017507;28;20054;-82
2022/10/11 04:47:40;;;;;;;12.48;2.95;;;;;;;8.85;100.00;101553.69;4998213;28;20049;-81
2022/10/11 04:50:13;;;;;;;15.43;3.25;;;;;;;8.79;100.00;101557.38;4974575;28;20037;-84
2022/10/11 04:52:40;;;;;;;17.38;3.22;;;;;;;8.78;100.00;101562.69;4935697;28;20423;-80
2022/10/11 04:55:10;;;;;;;22.45;3.47;;;;;;;8.74;100.00;101561.97;4967402;28;20136;-85
2022/10/11 04:57:38;;;;;;;22.48;4.15;;;;;;;8.82;100.00;101561.66;4996875;28;20038;-82
2022/10/11 05:00:09;;;;;;;15.18;3.58;;;;;;;8.77;100.00;101569.69;4990086;28;20050;-80
2022/10/11 05:02:40;;;;;;;21.02;3.80;;;;;;;8.75;100.00;101565.44;5005405;28;20064;-80
2022/10/11 05:05:08;;;;;;;18.17;3.95;;;;;;;8.74;100.00;101572.47;5012827;28;20045;-82
2022/10/11 05:07:36;;;;;;;15.27;3.47;;;;;;;8.74;100.00;101568.97;4968572;28;20049;-83
2022/10/11 05:10:43;;;;;;;17.85;4.20;;;;;;;8.70;100.00;101567.38;4993798;28;20046;-79
2022/10/11 05:13:38;;;;;;;19.92;4.72;;;;;;;8.74;100.00;101582.97;4977510;28;20049;-82
2022/10/11 05:16:07;;;;;;;20.08;4.07;;;;;;;8.73;100.00;101585.63;4989463;28;20103;-82
2022/10/11 05:18:43;;;;;;;18.23;3.42;;;;;;;8.69;100.00;101582.28;4962871;28;20412;-83
2022/10/11 05:25:30;;;;;;;16.40;3.22;;;;;;;8.69;100.00;101586.63;5005968;28;20041;-81
2022/10/11 05:28:00;;;;;;;22.05;4.47;;;;;;;8.68;100.00;101598.06;4989299;28;20119;-80
2022/10/11 05:30:27;;;;;;;18.85;4.32;;;;;;;8.67;100.00;101606.84;5022535;28;20057;-81
2022/10/11 05:32:57;;;;;;;19.05;3.38;;;;;;;8.63;100.00;101604.31;5008930;28;20038;-81
2022/10/11 05:35:31;;;;;;;17.88;3.95;;;;;;;8.64;100.00;101613.06;4981155;28;20045;-81
2022/10/11 05:38:01;;;;;;;37.63;6.45;;;;;;;8.63;100.00;101620.06;4996434;28;20066;-82
2022/10/11 05:40:29;;;;;;;53.05;8.65;;;;;;;8.63;100.00;101616.59;4996546;28;20428;-81
2022/10/11 05:43:00;;;;;;;34.60;5.95;;;;;;;8.65;100.00;101625.28;4978965;28;20045;-80
2022/10/11 05:45:27;;;;;;;56.17;7.05;;;;;;;8.70;100.00;101620.72;4983221;28;20555;-82
2022/10/11 05:47:56;;;;;;;72.28;12.00;;;;;;;8.70;100.00;101619.88;4975529;28;20508;-82
2022/10/11 05:50:26;;;;;;;38.33;6.00;;;;;;;8.75;100.00;101625.81;5000587;28;20373;-82
2022/10/11 05:52:54;;;;;;;18.63;5.85;;;;;;;8.77;100.00;101623.97;4993046;28;20045;-82
2022/10/11 05:55:21;;;;;;;20.35;4.05;;;;;;;8.78;100.00;101625.69;4976464;28;20045;-83
2022/10/11 05:57:53;;;;;;;18.83;4.40;;;;;;;8.77;100.00;101631.84;4967392;28;20047;-82
2022/10/11 06:00:22;;;;;;;12.55;3.72;;;;;;;8.79;100.00;101628.28;4979007;28;20488;-81
2022/10/11 06:02:49;;;;;;;15.05;4.00;;;;;;;8.82;100.00;101643.03;4981291;28;20054;-81
2022/10/11 06:05:17;;;;;;;18.15;4.35;;;;;;;8.85;100.00;101653.44;4989474;28;20046;-82
2022/10/11 06:07:44;;;;;;;21.33;5.22;;;;;;;8.91;100.00;101652.38;4992528;28;20046;-81
2022/10/11 06:10:12;;;;;;;23.45;4.22;;;;;;;8.86;100.00;101652.53;5020119;28;20068;-81
2022/10/11 06:12:42;;;;;;;16.58;4.35;;;;;;;8.90;100.00;101651.53;4996052;28;20038;-82
2022/10/11 06:15:10;;;;;;;20.65;4.80;;;;;;;8.86;100.00;101657.78;5000097;28;20054;-82
2022/10/11 06:17:37;;;;;;;21.05;4.95;;;;;;;8.84;100.00;101663.09;4981707;28;20050;-82
2022/10/11 06:20:05;;;;;;;20.45;4.28;;;;;;;8.83;100.00;101657.91;4974758;28;20064;-82
2022/10/11 06:22:33;;;;;;;17.80;4.18;;;;;;;8.85;100.00;101658.72;5003674;28;20048;-81
2022/10/11 06:25:00;;;;;;;20.15;4.60;;;;;;;8.82;100.00;101664.91;4998090;28;20053;-81
2022/10/11 06:27:29;;;;;;;34.63;7.22;;;;;;;8.85;100.00;101667.44;4977524;28;20525;-81
2022/10/11 06:29:57;;;;;;;27.08;5.03;;;;;;;8.87;100.00;101670.88;4977334;28;20052;-81
2022/10/11 06:32:25;;;;;;;22.40;5.22;;;;;;;8.87;100.00;101676.13;4986793;28;20072;-80
2022/10/11 06:34:52;;;;;;;23.30;4.88;;;;;;;8.91;100.00;101676.84;4999126;28;20100;-82
2022/10/11 06:37:19;;;;;;;22.60;4.53;;;;;;;8.94;100.00;101682.00;5010632;28;20179;-81
2022/10/11 06:39:48;;;;;;;18.98;4.35;;;;;;;8.95;100.00;101686.34;4990545;28;20076;-82
2022/10/11 06:42:16;;;;;;;15.77;4.05;;;;;;;8.97;100.00;101686.31;5008980;28;20071;-83
2022/10/11 06:44:43;;;;;;;20.88;4.57;;;;;;;9.02;100.00;101679.97;4971770;28;20141;-79
2022/10/11 06:47:10;;;;;;;34.00;5.43;;;;;;;9.04;100.00;101688.66;4969540;28;20061;-81
2022/10/11 06:49:38;;;;;;;12.10;4.15;;;;;;;9.15;100.00;101692.69;4998263;28;20045;-82
2022/10/11 06:52:05;;;;;;;27.00;5.13;;;;;;;9.10;100.00;101693.69;4976981;28;20050;-83
2022/10/11 06:54:34;;;;;;;24.75;5.47;;;;;;;9.16;100.00;101702.28;4982486;28;20056;-81
2022/10/11 06:57:01;;;;;;;18.15;4.35;;;;;;;9.14;100.00;101699.72;4976112;28;20057;-82
2022/10/11 06:59:28;;;;;;;15.77;4.85;;;;;;;9.14;100.00;101702.34;4999310;28;20049;-82
2022/10/11 07:01:56;;;;;;;12.38;4.13;;;;;;;9.14;100.00;101715.47;5002358;28;20411;-81
2022/10/11 07:04:26;;;;;;;22.60;4.78;;;;;;;9.18;100.00;101710.94;5008554;28;20080;-82
2022/10/11 07:06:53;;;;;;;20.27;6.22;;;;;;;9.22;100.00;101713.41;4996872;28;20046;-81
2022/10/11 07:09:21;;;;;;;14.18;4.70;;;;;;;9.25;100.00;101715.06;4959898;28;20394;-81
2022/10/11 07:11:49;;;;;;;25.00;5.50;;;;;;;9.27;100.00;101723.75;4984442;28;20107;-82
2022/10/11 07:14:16;;;;;;;23.92;6.43;;;;;;;9.34;100.00;101722.63;5000468;28;20125;-80
2022/10/11 07:16:44;;;;;;;22.20;4.80;;;;;;;9.34;100.00;101728.75;4988546;28;20411;-82
2022/10/11 07:19:11;;;;;;;18.02;4.47;;;;;;;9.41;100.00;101726.75;4975273;28;20057;-82
2022/10/11 07:21:38;;;;;;;18.85;4.72;;;;;;;9.42;100.00;101736.34;5002777;28;20060;-80
2022/10/11 07:24:07;;;;;;;19.42;4.40;;;;;;;9.45;100.00;101743.25;4967957;28;20064;-82
2022/10/11 07:26:34;;;;;;;29.25;5.32;;;;;;;9.48;100.00;101740.53;4960876;28;20050;-81
2022/10/11 07:29:07;;;;;;;16.23;4.38;;;;;;;9.54;100.00;101745.53;4984305;28;20050;-81
2022/10/11 07:31:36;;;;;;;13.75;4.82;;;;;;;9.64;100.00;101752.19;4980840;28;20473;-82
2022/10/11 07:34:04;;;;;;;30.95;4.93;;;;;;;9.68;100.00;101753.81;4983295;28;20281;-81
2022/10/11 07:36:32;;;;;;;25.13;4.38;;;;;;;9.77;100.00;101760.47;5000676;28;20520;-81
2022/10/11 07:39:03;;;;;;;17.77;5.25;;;;;;;9.81;100.00;101759.44;5007088;28;20045;-82
2022/10/11 07:41:32;;;;;;;16.17;3.92;;;;;;;9.78;100.00;101760.44;4978122;28;20053;-81
2022/10/11 07:44:03;;;;;;;18.77;4.28;;;;;;;9.82;99.91;101763.81;4980904;28;20061;-81
2022/10/11 07:46:32;;;;;;;16.48;3.63;;;;;;;9.80;99.76;101769.09;5023473;28;20075;-82
2022/10/11 07:49:00;;;;;;;15.80;4.25;;;;;;;9.79;99.79;101767.41;4967289;28;20053;-79
2022/10/11 07:51:31;;;;;;;16.50;4.28;;;;;;;9.86;99.81;101774.16;4994846;28;20092;-81
2022/10/11 07:53:59;;;;;;;24.95;5.00;;;;;;;10.04;98.07;101772.59;4976114;28;20485;-81
2022/10/11 07:56:33;;;;;;;31.95;5.38;;;;;;;10.13;98.15;101777.50;5002574;28;20050;-81
2022/10/11 07:59:04;;;;;;;22.90;5.15;;;;;;;10.21;97.10;101782.44;4999563;28;20076;-82
2022/10/11 08:01:32;;;;;;;16.42;4.03;;;;;;;10.17;96.98;101780.00;4992989;28;20046;-81
2022/10/11 08:04:00;;;;;;;14.55;3.72;;;;;;;10.25;97.28;101783.22;4981599;28;20042;-81
2022/10/11 08:06:30;;;;;;;13.77;3.50;;;;;;;10.31;96.21;101786.50;5019947;28;20050;-83
2022/10/11 08:08:59;;;;;;;15.90;4.00;;;;;;;10.35;96.58;101785.44;4972844;28;20145;-82
2022/10/11 08:11:33;;;;;;;17.40;3.78;;;;;;;10.39;95.67;101783.53;4971955;28;20045;-82
2022/10/11 08:14:07;;;;;;;16.23;3.80;;;;;;;10.42;95.20;101788.69;4984501;28;21170;-80
2022/10/11 08:16:39;;;;;;;17.38;4.22;;;;;;;10.44;94.97;101788.63;5001167;28;20045;-82
2022/10/11 08:19:06;;;;;;;13.48;3.28;;;;;;;10.45;94.90;101793.00;4986118;28;20779;-82
2022/10/11 08:21:34;;;;;;;11.85;3.70;;;;;;;10.52;95.16;101790.03;5005346;28;20045;-81
2022/10/11 08:24:10;;;;;;;16.10;3.25;;;;;;;10.74;93.60;101781.28;4987014;28;20621;-83
2022/10/11 08:26:38;;;;;;;13.75;3.72;;;;;;;10.84;92.62;101788.72;5005083;28;20103;-84
2022/10/11 08:29:06;;;;;;;14.25;3.38;;;;;;;10.82;93.06;101781.81;4992325;28;20087;-82
2022/10/11 08:31:34;;;;;;;19.05;4.70;;;;;;;10.87;92.88;101785.97;4980039;28;20065;-81
2022/10/11 08:34:01;;;;;;;20.80;4.05;;;;;;;11.04;91.31;101793.16;5012751;28;20055;-82
2022/10/11 08:36:29;;;;;;;14.45;3.80;;;;;;;11.08;91.46;101791.28;5012527;28;20085;-80
2022/10/11 08:38:57;;;;;;;19.67;3.42;;;;;;;11.11;91.40;101797.25;5004761;28;20132;-81
2022/10/11 08:41:34;;;;;;;11.98;3.00;;;;;;;11.18;91.05;101804.91;4980555;28;20045;-80
2022/10/11 08:44:16;;;;;;;15.55;3.40;;;;;;;11.23;90.83;101797.66;4997517;28;20058;-83
2022/10/11 08:46:49;;;;;;;22.83;4.53;;;;;;;11.28;89.37;101806.22;5001733;28;20053;-82
2022/10/11 08:49:25;;;;;;;15.00;3.58;;;;;;;11.30;88.46;101801.72;5000795;28;20057;-82
2022/10/11 08:51:58;;;;;;;13.38;3.40;;;;;;;11.36;87.78;101799.69;4995034;28;20132;-81
2022/10/11 08:54:35;;;;;;;8.60;2.45;;;;;;;11.42;87.56;101793.28;4991044;28;20052;-78
2022/10/11 08:57:04;;;;;;;11.55;3.08;;;;;;;11.51;87.13;101806.06;4993763;28;20488;-82
2022/10/11 08:59:50;;;;;;;14.57;2.25;;;;;;;11.57;87.42;101804.94;4994236;28;20045;-81
2022/10/11 09:02:24;;;;;;;13.20;2.80;;;;;;;11.60;86.10;101808.31;5010535;28;20501;-81
2022/10/11 09:04:55;;;;;;;13.57;3.00;;;;;;;11.65;85.25;101811.59;5020640;28;20048;-81
2022/10/11 09:07:37;;;;;;;9.50;2.47;;;;;;;11.72;83.93;101819.25;4997243;28;20481;-83
2022/10/11 09:10:36;;;;;;;15.38;3.17;;;;;;;11.76;84.44;101812.91;4997074;28;20046;-83
2022/10/11 09:13:10;;;;;;;13.63;2.90;;;;;;;11.79;83.55;101815.38;4988154;28;20056;-82
2022/10/11 09:16:10;;;;;;;12.73;2.80;;;;;;;11.85;83.60;101820.44;5013494;28;20045;-81
2022/10/11 09:19:02;;;;;;;19.20;3.20;;;;;;;11.94;82.89;101821.81;4998243;28;20144;-80
2022/10/11 09:21:47;;;;;;;13.43;2.70;;;;;;;11.99;81.06;101818.03;4972919;28;20512;-81
2022/10/11 09:24:53;;;;;;;12.77;2.75;;;;;;;12.10;82.19;101807.81;5004866;28;20569;-82
2022/10/11 09:27:32;;;;;;;13.55;3.38;;;;;;;12.15;80.11;101824.28;4923872;29;20052;-82
2022/10/11 09:30:19;;;;;;;23.70;3.55;;;;;;;12.20;79.86;101818.81;5011661;28;20058;-81
2022/10/11 09:32:56;;;;;;;16.10;3.75;;;;;;;12.26;79.97;101812.41;5020192;28;20037;-81
2022/10/11 09:35:24;;;;;;;13.90;2.42;;;;;;;12.36;79.85;101818.94;4982301;28;20564;-83
2022/10/11 09:37:59;;;;;;;11.93;2.85;;;;;;;12.45;78.63;101818.50;4986725;28;20038;-82
2022/10/11 09:41:00;;;;;;;12.35;3.20;;;;;;;12.54;77.45;101827.78;5001174;28;20041;-83
2022/10/11 09:43:28;;;;;;;16.08;2.28;;;;;;;12.60;76.08;101832.75;5015074;28;20408;-81
2022/10/11 09:45:55;;;;;;;24.65;4.28;;;;;;;12.65;75.21;101830.75;5002729;28;20136;-80
2022/10/11 09:48:26;;;;;;;15.27;2.95;;;;;;;12.62;75.97;101829.13;5008234;28;20076;-80
2022/10/11 09:51:00;;;;;;;9.82;2.47;;;;;;;12.64;77.31;101824.63;4975244;28;20049;-78
2022/10/11 09:53:58;;;;;;;15.80;3.03;;;;;;;12.78;77.09;101817.81;4988202;28;20264;-81
2022/10/11 09:56:28;;;;;;;9.73;2.33;;;;;;;12.85;76.77;101821.88;4995672;28;20038;-81
2022/10/11 09:59:14;;;;;;;19.23;3.58;;;;;;;12.97;75.83;101815.97;5005806;28;20053;-80
2022/10/11 10:01:43;;;;;;;13.52;2.70;;;;;;;13.07;75.69;101826.94;4987614;28;20430;-80
2022/10/11 10:04:17;;;;;;;11.68;2.67;;;;;;;13.06;74.04;101820.81;5021465;28;20093;-80
2022/10/11 10:06:46;;;;;;;16.35;2.80;;;;;;;13.10;74.63;101822.38;4973471;28;20112;-78
2022/10/11 10:09:29;;;;;;;11.60;2.95;;;;;;;13.19;72.54;101821.03;4995441;28;20061;-84
2022/10/11 10:11:57;;;;;;;19.25;3.60;;;;;;;13.26;71.48;101819.81;4981654;28;20512;-81
2022/10/11 10:14:27;;;;;;;22.75;3.88;;;;;;;13.36;71.35;101833.41;4972853;28;20041;-80
2022/10/11 10:17:07;;;;;;;16.58;3.42;;;;;;;13.49;71.01;101829.22;4996471;28;20088;-82
2022/10/11 10:19:40;;;;;;;7.93;2.22;;;;;;;13.56;69.48;101833.25;4972981;28;20511;-79
2022/10/11 10:22:17;;;;;;;21.70;3.30;;;;;;;13.61;68.93;101828.59;4969311;28;20088;-80
2022/10/11 10:24:46;;;;;;;18.20;2.50;;;;;;;13.75;68.23;101829.66;4986315;28;20128;-80
2022/10/11 10:27:15;;;;;;;14.85;3.00;;;;;;;13.86;67.52;101824.63;4987893;28;20069;-81
2022/10/11 10:30:06;;;;;;;16.35;3.42;;;;;;;13.97;66.54;101829.34;5006900;28;20042;-80
2022/10/11 10:32:45;;;;;;;14.77;3.15;;;;;;;13.99;66.95;101830.13;4989783;28;20052;-82
2022/10/11 10:35:41;;;;;;;22.02;3.50;;;;;;;14.13;67.29;101830.22;4994594;28;20045;-80
2022/10/11 10:38:16;;;;;;;14.18;2.88;;;;;;;14.28;65.93;101839.13;4997001;28;20057;-82
2022/10/11 10:40:49;;;;;;;20.70;3.63;;;;;;;14.39;64.78;101842.88;4993123;28;20053;-82
2022/10/11 10:43:31;;;;;;;13.60;3.17;;;;;;;14.48;63.71;101841.56;4972064;28;20483;-81
2022/10/11 10:46:32;;;;;;;22.27;3.05;;;;;;;14.45;61.91;101841.69;5005544;28;20065;-84
2022/10/11 10:49:26;;;;;;;15.85;3.28;;;;;;;14.48;61.06;101845.97;4992894;28;20047;-81
2022/10/11 10:52:19;;;;;;;10.80;2.40;;;;;;;14.22;60.88;101835.00;5001122;28;20049;-81
2022/10/11 10:55:08;;;;;;;12.15;2.42;;;;;;;14.17;61.71;101843.19;5001900;28;20071;-80
2022/10/11 10:58:10;;;;;;;11.30;2.33;;;;;;;14.30;62.81;101837.25;5000957;28;20049;-80
2022/10/11 11:00:49;;;;;;;13.05;2.95;;;;;;;14.46;62.38;101840.75;4983424;28;20057;-81
2022/10/11 11:03:50;;;;;;;13.68;2.65;;;;;;;14.55;61.36;101834.97;4969901;28;20054;-80
2022/10/11 11:06:35;;;;;;;12.63;2.45;;;;;;;14.81;60.46;101851.19;5011864;28;20073;-82
2022/10/11 11:09:24;;;;;;;17.40;3.03;;;;;;;14.76;59.69;101846.13;4979110;28;20519;-80
2022/10/11 11:11:51;;;;;;;13.93;3.03;;;;;;;14.80;58.46;101846.81;5001522;28;20051;-82
2022/10/11 11:14:45;;;;;;;15.63;3.25;;;;;;;14.79;59.56;101842.47;4993394;28;20038;-80
2022/10/11 11:17:37;;;;;;;11.48;2.75;;;;;;;15.06;60.03;101832.91;5018500;28;20041;-81
2022/10/11 11:20:50;;;;;;;9.68;2.55;;;;;;;15.30;59.92;101843.88;4990041;28;20049;-80
2022/10/11 11:23:41;;;;;;;13.57;3.10;;;;;;;15.60;57.57;101838.53;4984035;28;20069;-80
2022/10/11 11:26:25;;;;;;;11.13;2.10;;;;;;;15.70;55.49;101839.72;5007724;28;20045;-80
2022/10/11 11:29:21;;;;;;;18.10;3.03;;;;;;;15.82;56.61;101827.50;4993979;28;20133;-80
2022/10/11 11:32:01;;;;;;;;;;;;;;;16.04;56.19;101832.31;4984855;28;20046;-78
2022/10/11 11:34:37;;;;;;;17.65;2.97;;;;;;;16.20;54.96;101822.41;4964877;28;19935;-80
2022/10/11 11:37:14;;;;;;;10.68;2.50;;;;;;;16.29;54.07;101831.59;4969910;28;20129;-81
2022/10/11 11:39:46;;;;;;;13.05;2.45;;;;;;;16.43;55.26;101826.25;4969767;28;20070;-79
2022/10/11 11:42:25;;;;;;;18.23;2.65;;;;;;;16.39;54.46;101832.75;4984230;28;20061;-80
2022/10/11 11:44:52;;;;;;;13.48;2.65;;;;;;;16.07;55.84;101834.75;4997398;28;20056;-80
2022/10/11 11:47:23;;;;;;;14.23;2.35;;;;;;;15.84;54.33;101845.97;4993237;28;20473;-80
2022/10/11 11:49:58;;;;;;;14.82;2.45;;;;;;;15.50;54.77;101839.19;4985054;28;20052;-81
2022/10/11 11:52:34;;;;;;;15.10;2.20;;;;;;;15.22;55.56;101837.31;4977823;28;20042;-80
2022/10/11 11:55:12;;;;;;;15.43;3.40;;;;;;;14.99;56.33;101833.34;4970359;28;20038;-83
2022/10/11 11:58:06;;;;;;;9.52;1.95;;;;;;;14.87;57.81;101832.28;4994296;28;20064;-81